ilmateenistus.ee keskkonnaagentuur.ee
EETN Tallinna lennuväli
FTEO31 EETN 252300
TAF EETN 252328Z 2600/2624 09006KT CAVOK TEMPO 2600/2605 0600 BCFG
    BKN002 TEMPO 2605/2607 BKN006=

METAR EETN 260520Z 09005KT CAVOK 08/07 Q1039 NOSIG=
Tallinna lennuväli
EEKA Kärdla lennuväli
FCEO32 EETN 260300
TAF EEKA 260300Z 2604/2610 09010KT CAVOK PROB30 TEMPO 2604/2606 4000
    BR BKN003=

METAR EEKA 260450Z 14003KT 9999 MIFG 08/07 Q1038=
Kärdla lennuväli
EEKE Kuressaare lennuväli
FCEO32 EETN 260500
TAF EEKE 260500Z 2606/2612 05005KT CAVOK BECMG 2607/2609 11010KT=

METAR EEKE 260450Z 04005KT CAVOK 10/09 Q1037=
Kuressaare lennuväli
EEPU Pärnu lennuväli
METAR EEPU 260450Z 07003KT CAVOK 07/07 Q1038=
Pärnu lennuväli
EETU Tartu lennuväli
FCEO32 EETN 260300 RRA
TAF EETU 260319Z 2604/2610 08006KT 8000 NSC TEMPO 2604/2606 0700 BCFG
    SCT003 TEMPO 2606/2610 BKN010=

METAR EETU 260520Z 07003KT 0500 R08/0600N FG VV001 08/07 Q1039=
Tartu lennuväli
EEEI Ämari lennuväli
METAR EEEI 260450Z 08003KT CAVOK 07/07 Q1039 NOSIG=
Ämari lennuväli